Time;durP1;ratioP1;P1;durP2;ratioP2;P2;SDS_P1;SDS_P2;PMS_P1;PMS_P2;Temp;Humidity;BMP_temperature;BMP_pressure;BME280_temperature;BME280_humidity;BME280_pressure;Samples;Min_cycle;Max_cycle;Signal;HPM_P1;HPM_P2
2023/08/31 00:03:05;;;;;;;2.60;2.40;;;;;;;15.18;59.46;99291.41;10333729;28;20306;-41
2023/08/31 00:08:07;;;;;;;3.90;2.40;;;;;;;16.00;57.55;99213.44;10333025;28;20324;-38
2023/08/31 00:13:09;;;;;;;2.57;2.37;;;;;;;15.41;58.41;99321.16;10333995;28;20383;-40
2023/08/31 00:18:12;;;;;;;3.37;2.63;;;;;;;16.07;56.93;99251.13;10326542;28;20246;-38
2023/08/31 00:23:14;;;;;;;4.57;2.53;;;;;;;15.73;57.27;99312.88;10337254;28;20284;-39
2023/08/31 00:28:18;;;;;;;4.93;2.70;;;;;;;15.52;58.13;99276.41;10334875;28;20233;-39
2023/08/31 00:33:20;;;;;;;3.57;2.60;;;;;;;15.60;57.52;99302.28;10340936;28;20229;-38
2023/08/31 00:38:28;;;;;;;4.67;2.80;;;;;;;16.28;56.14;99214.66;10332417;28;20240;-39
2023/08/31 00:43:31;;;;;;;3.30;3.00;;;;;;;15.46;57.36;99309.72;10336749;28;20241;-40
2023/08/31 00:48:33;;;;;;;3.43;3.13;;;;;;;15.33;58.08;99314.22;10335904;28;20236;-38
2023/08/31 00:53:35;;;;;;;3.90;3.00;;;;;;;15.72;57.02;99280.72;10336409;28;20255;-39
2023/08/31 00:58:37;;;;;;;6.90;3.60;;;;;;;14.85;58.36;99362.69;10335555;28;20332;-40
2023/08/31 01:04:14;;;;;;;4.30;3.17;;;;;;;14.25;59.43;99400.84;10335252;28;20346;-39
2023/08/31 01:09:38;;;;;;;3.20;3.00;;;;;;;15.44;57.41;99244.41;10303727;28;20257;-39
2023/08/31 01:14:47;;;;;;;3.60;3.10;;;;;;;14.18;59.12;99400.91;10297694;28;20261;-40
2023/08/31 01:19:53;;;;;;;4.03;3.00;;;;;;;15.26;56.93;99328.84;10289996;28;20231;-39
2023/08/31 01:24:56;;;;;;;3.47;2.80;;;;;;;15.59;55.87;99370.72;10286494;28;20358;-38
2023/08/31 01:29:58;;;;;;;3.07;2.70;;;;;;;15.76;55.68;99333.16;10291857;28;20742;-39
2023/08/31 01:35:05;;;;;;;5.80;2.50;;;;;;;16.19;54.73;99305.91;10291739;28;20237;-38
2023/08/31 01:40:20;;;;;;;2.97;2.53;;;;;;;14.24;58.45;99504.13;10276515;28;20356;-38
2023/08/31 01:45:24;;;;;;;2.47;2.20;;;;;;;14.90;57.91;99371.72;10292666;28;20237;-38
2023/08/31 01:50:25;;;;;;;4.37;2.60;;;;;;;15.13;57.14;99384.53;10292603;28;20778;-39
2023/08/31 01:55:27;;;;;;;4.73;2.40;;;;;;;15.15;56.89;99357.38;10295761;28;20317;-40
2023/08/31 02:00:34;;;;;;;2.20;2.00;;;;;;;15.09;57.24;99375.25;10289754;28;20976;-39
2023/08/31 02:05:36;;;;;;;5.07;3.03;;;;;;;14.51;58.46;99410.56;10294607;28;20237;-39
2023/08/31 02:10:38;;;;;;;3.27;2.77;;;;;;;15.52;56.67;99333.88;10327663;28;20245;-40
2023/08/31 02:15:39;;;;;;;5.20;2.97;;;;;;;15.21;56.95;99377.19;10329733;28;20230;-39
2023/08/31 02:20:41;;;;;;;3.60;2.60;;;;;;;15.92;55.59;99307.41;10328585;28;20264;-38
2023/08/31 02:25:43;;;;;;;3.20;2.90;;;;;;;15.57;55.97;99379.09;10329437;28;20232;-39
2023/08/31 02:30:46;;;;;;;3.50;3.00;;;;;;;15.43;56.78;99358.69;10326280;28;20375;-39
2023/08/31 02:35:47;;;;;;;4.80;2.80;;;;;;;15.84;55.62;99347.16;10325099;28;20730;-40
2023/08/31 02:40:50;;;;;;;4.83;2.67;;;;;;;15.42;56.99;99357.88;10327865;28;20240;-39
2023/08/31 02:46:01;;;;;;;4.17;3.50;;;;;;;14.87;57.28;99474.53;10328009;28;20303;-40
2023/08/31 02:51:03;;;;;;;4.80;2.83;;;;;;;14.84;56.96;99501.09;10302622;28;20642;-40
2023/08/31 02:56:05;;;;;;;3.70;2.60;;;;;;;15.78;55.80;99356.16;10330065;28;20291;-39
2023/08/31 03:01:09;;;;;;;3.57;3.10;;;;;;;15.62;56.02;99386.47;10327316;28;20235;-39
2023/08/31 03:06:10;;;;;;;3.90;2.87;;;;;;;14.32;58.03;99528.94;10320642;28;20257;-40
2023/08/31 03:11:14;;;;;;;4.23;2.70;;;;;;;14.45;58.54;99431.13;10324491;28;20810;-40
2023/08/31 03:16:16;;;;;;;2.67;2.43;;;;;;;14.03;58.86;99477.31;10329161;28;20233;-39
2023/08/31 03:21:17;;;;;;;2.90;2.70;;;;;;;14.83;57.12;99399.75;10320110;28;20217;-40
2023/08/31 03:26:19;;;;;;;4.73;2.93;;;;;;;14.29;58.95;99412.81;10328781;28;20295;-41
2023/08/31 03:31:21;;;;;;;4.80;3.17;;;;;;;15.33;55.89;99372.69;10325080;28;20357;-38
2023/08/31 03:36:23;;;;;;;3.80;3.17;;;;;;;14.60;57.02;99484.66;10332517;28;20218;-38
2023/08/31 03:41:25;;;;;;;3.13;2.73;;;;;;;14.32;58.15;99467.03;10319382;28;20300;-39
2023/08/31 03:46:27;;;;;;;3.13;2.80;;;;;;;15.42;56.03;99368.66;10332979;28;20306;-38
2023/08/31 03:51:29;;;;;;;3.23;2.83;;;;;;;13.70;58.56;99550.06;10332425;28;20230;-39
2023/08/31 03:56:31;;;;;;;5.63;3.60;;;;;;;14.26;57.87;99480.56;10337393;28;20249;-39
2023/08/31 04:01:33;;;;;;;3.80;3.40;;;;;;;15.37;55.50;99397.31;10326767;28;20233;-40
2023/08/31 04:06:35;;;;;;;5.87;3.70;;;;;;;14.70;57.18;99451.88;10334806;28;20233;-40
2023/08/31 04:11:37;;;;;;;3.60;2.80;;;;;;;14.87;56.80;99449.47;10332272;28;20229;-40
2023/08/31 04:16:39;;;;;;;3.87;3.30;;;;;;;15.12;56.31;99425.19;10338551;28;20770;-38
2023/08/31 04:21:40;;;;;;;2.67;2.43;;;;;;;14.21;58.18;99494.66;10330673;28;20379;-39
2023/08/31 04:26:43;;;;;;;2.90;2.60;;;;;;;13.64;59.21;99542.84;10329662;28;20590;-39
2023/08/31 04:31:45;;;;;;;4.13;2.90;;;;;;;14.01;58.64;99479.38;10326843;28;20678;-39
2023/08/31 04:36:47;;;;;;;4.13;3.27;;;;;;;14.04;58.72;99473.59;10327634;28;20241;-38
2023/08/31 04:41:49;;;;;;;6.47;2.80;;;;;;;13.26;59.08;99598.06;10330278;28;20369;-39
2023/08/31 04:46:51;;;;;;;3.57;2.63;;;;;;;13.87;58.04;99542.38;10330052;28;20237;-38
2023/08/31 04:51:53;;;;;;;3.77;2.83;;;;;;;14.18;57.66;99501.28;10328821;28;20260;-40
2023/08/31 04:56:55;;;;;;;3.30;2.70;;;;;;;13.83;58.87;99511.53;10333313;28;20229;-39
2023/08/31 05:05:21;;;;;;;4.10;2.97;;;;;;;15.67;54.21;99452.19;10503092;27;20365;-75
2023/08/31 05:10:22;;;;;;;3.30;2.83;;;;;;;15.68;53.96;99502.34;10491783;28;20231;-74
2023/08/31 05:15:27;;;;;;;5.17;3.10;;;;;;;16.43;52.59;99460.72;10493498;28;20768;-75
2023/08/31 05:20:29;;;;;;;4.13;3.20;;;;;;;15.89;53.38;99573.09;10490784;28;20359;-75
2023/08/31 05:25:30;;;;;;;3.73;2.67;;;;;;;16.50;51.79;99552.44;10488534;28;20242;-74
2023/08/31 05:30:34;;;;;;;3.17;2.60;;;;;;;17.52;49.74;99510.03;10485596;28;20721;-77
2023/08/31 05:35:39;;;;;;;6.27;2.70;;;;;;;17.01;51.20;99542.13;10488238;28;20239;-74
2023/08/31 05:40:45;;;;;;;3.30;2.70;;;;;;;16.35;52.23;99592.53;10485886;28;20276;-75
2023/08/31 05:45:47;;;;;;;5.40;3.10;;;;;;;16.39;51.95;99581.03;10488695;28;20719;-75
2023/08/31 05:50:50;;;;;;;4.70;2.60;;;;;;;17.16;50.60;99547.91;10493123;28;20229;-77
2023/08/31 05:55:51;;;;;;;6.23;2.77;;;;;;;17.22;50.33;99531.78;10486377;28;20235;-76
2023/08/31 06:00:53;;;;;;;3.40;2.60;;;;;;;18.15;48.66;99502.94;10491094;28;20671;-74
2023/08/31 06:05:56;;;;;;;4.70;3.33;;;;;;;15.65;53.04;99669.22;10484644;28;20234;-74
2023/08/31 06:10:58;;;;;;;3.90;3.20;;;;;;;16.19;52.03;99629.84;10479240;28;20234;-74
2023/08/31 06:16:00;;;;;;;5.73;2.83;;;;;;;16.74;51.47;99588.44;10463976;28;20336;-73
2023/08/31 06:21:01;;;;;;;5.50;3.23;;;;;;;16.49;52.04;99568.88;10502450;28;20718;-74
2023/08/31 06:26:03;;;;;;;5.37;3.47;;;;;;;15.82;53.50;99624.41;10491290;28;20713;-73
2023/08/31 06:31:05;;;;;;;4.27;3.10;;;;;;;16.42;52.54;99574.34;10504072;28;20705;-73
2023/08/31 06:36:09;;;;;;;5.10;2.83;;;;;;;16.16;52.90;99580.88;10507674;28;20218;-74
2023/08/31 06:41:11;;;;;;;4.27;3.17;;;;;;;16.24;51.87;99642.66;10478713;28;20222;-74
2023/08/31 06:46:13;;;;;;;3.27;2.90;;;;;;;17.05;51.32;99524.38;10491955;28;20621;-74
2023/08/31 06:51:25;;;;;;;5.23;3.03;;;;;;;16.53;51.65;99648.38;10490148;28;21047;-74
2023/08/31 06:56:27;;;;;;;6.27;3.33;;;;;;;16.45;52.84;99598.22;10499607;28;20696;-74
2023/08/31 07:01:32;;;;;;;4.70;3.03;;;;;;;16.16;52.86;99654.59;10496715;28;20238;-74
2023/08/31 07:06:38;;;;;;;4.50;3.37;;;;;;;16.43;52.30;99600.28;10498706;28;20715;-75
2023/08/31 07:11:39;;;;;;;3.67;3.00;;;;;;;17.09;51.30;99551.75;10492638;28;20226;-74
2023/08/31 07:16:41;;;;;;;5.50;2.90;;;;;;;17.00;51.16;99570.19;10498893;28;20230;-74
2023/08/31 07:21:43;;;;;;;4.57;3.10;;;;;;;17.61;50.95;99551.06;10492701;28;20304;-74
2023/08/31 07:26:44;;;;;;;5.07;3.10;;;;;;;16.54;51.32;99640.03;10495392;28;20229;-74
2023/08/31 07:31:46;;;;;;;3.77;2.40;;;;;;;17.02;50.29;99632.13;10494675;28;20254;-73
2023/08/31 07:36:50;;;;;;;4.00;2.33;;;;;;;16.46;51.67;99653.84;10486212;28;20782;-75
2023/08/31 07:41:54;;;;;;;3.83;2.50;;;;;;;17.11;50.96;99577.50;10498247;28;20264;-74
2023/08/31 07:46:56;;;;;;;4.33;2.83;;;;;;;16.95;50.63;99672.78;10494830;28;20238;-74
2023/08/31 07:51:58;;;;;;;4.60;2.77;;;;;;;17.57;49.88;99568.84;10490719;28;20227;-74
2023/08/31 07:57:00;;;;;;;4.93;2.50;;;;;;;16.41;50.48;99707.72;10495174;28;20234;-76
2023/08/31 08:02:01;;;;;;;3.27;2.30;;;;;;;17.48;49.50;99598.13;10477453;28;20226;-74
2023/08/31 08:07:03;;;;;;;4.47;2.40;;;;;;;17.32;48.84;99659.13;10499862;28;20226;-74
2023/08/31 08:12:05;;;;;;;2.63;2.23;;;;;;;16.98;49.88;99689.34;10493587;28;20717;-74
2023/08/31 08:17:07;;;;;;;2.63;2.00;;;;;;;16.94;49.58;99707.06;10482874;28;20231;-74
2023/08/31 08:22:09;;;;;;;4.10;2.93;;;;;;;18.01;48.43;99628.81;10492724;28;20717;-74
2023/08/31 08:27:11;;;;;;;4.47;2.27;;;;;;;17.47;49.16;99645.97;10491525;28;20347;-73
2023/08/31 08:32:13;;;;;;;8.77;3.60;;;;;;;17.85;48.40;99650.16;10492418;28;20333;-74
2023/08/31 08:37:17;;;;;;;3.83;2.30;;;;;;;16.83;48.79;99723.22;10479518;28;20257;-74
2023/08/31 08:42:24;;;;;;;4.67;2.53;;;;;;;17.43;47.29;99703.50;10495551;28;20245;-74
2023/08/31 08:47:27;;;;;;;2.70;2.20;;;;;;;18.18;45.79;99651.38;10492486;28;20506;-74
2023/08/31 08:52:29;;;;;;;6.20;2.07;;;;;;;17.83;46.98;99659.53;10498691;28;20594;-74
2023/08/31 08:57:31;;;;;;;3.80;2.60;;;;;;;16.93;47.82;99732.44;10496511;28;20230;-76
2023/08/31 09:02:33;;;;;;;4.50;2.30;;;;;;;17.27;47.30;99708.50;10502738;28;20246;-73
2023/08/31 09:07:39;;;;;;;3.73;2.17;;;;;;;17.91;45.89;99664.59;10475971;28;20242;-75
2023/08/31 09:12:41;;;;;;;3.73;2.70;;;;;;;18.25;45.28;99664.81;10485152;28;20253;-73
2023/08/31 09:17:47;;;;;;;3.20;2.30;;;;;;;17.79;46.65;99699.78;10497706;28;20241;-74
2023/08/31 09:22:50;;;;;;;4.63;2.83;;;;;;;17.80;45.81;99720.41;10497678;28;20230;-75
2023/08/31 09:27:53;;;;;;;4.33;2.57;;;;;;;17.66;45.88;99665.69;10498183;28;20226;-74
2023/08/31 09:32:57;;;;;;;3.93;2.30;;;;;;;18.78;44.73;99655.59;10496229;28;20277;-74
2023/08/31 09:38:02;;;;;;;6.20;2.50;;;;;;;17.84;45.95;99596.25;10491568;28;20269;-73
2023/08/31 09:43:04;;;;;;;5.10;2.40;;;;;;;17.28;44.70;99726.38;10498328;28;20399;-74
2023/08/31 09:48:06;;;;;;;4.40;2.27;;;;;;;16.65;45.44;99751.06;10500936;28;20311;-74
2023/08/31 09:53:11;;;;;;;5.03;2.30;;;;;;;17.39;45.21;99646.31;10510608;28;20247;-75
2023/08/31 09:58:19;;;;;;;2.63;2.30;;;;;;;18.12;44.58;99705.66;10502194;28;20239;-75
2023/08/31 10:03:21;;;;;;;6.33;2.37;;;;;;;17.54;44.95;99708.09;10507715;28;20242;-77
2023/08/31 10:08:24;;;;;;;2.90;2.20;;;;;;;18.69;43.83;99640.78;10500988;28;20611;-75
2023/08/31 10:13:28;;;;;;;4.73;2.30;;;;;;;17.86;43.77;99692.38;10490321;28;20682;-74
2023/08/31 10:18:32;;;;;;;5.40;3.07;;;;;;;18.08;43.34;99657.44;10500135;28;20331;-75
2023/08/31 10:23:36;;;;;;;3.87;2.20;;;;;;;17.91;43.74;99689.78;10505610;28;20231;-74
2023/08/31 10:28:42;;;;;;;6.63;2.90;;;;;;;17.86;43.34;99729.44;10501738;28;20329;-74
2023/08/31 10:33:45;;;;;;;3.83;1.90;;;;;;;18.92;41.98;99573.97;10499412;28;20851;-74
2023/08/31 10:39:02;;;;;;;6.27;2.50;;;;;;;18.38;43.45;99637.47;10502577;28;20262;-74
2023/08/31 10:44:21;;;;;;;3.40;2.20;;;;;;;18.82;42.53;99637.78;10500913;28;20746;-74
2023/08/31 10:49:23;;;;;;;5.20;2.40;;;;;;;19.24;42.53;99643.97;10498121;28;20277;-74
2023/08/31 10:54:37;;;;;;;2.77;2.03;;;;;;;19.02;43.03;99675.31;10495110;28;20231;-75
2023/08/31 10:59:50;;;;;;;6.75;2.40;;;;;;;19.16;42.97;99553.78;10493765;28;20658;-75
2023/08/31 11:06:19;;;;;;;3.55;2.20;;;;;;;17.54;47.07;99553.88;10487963;27;2129678;-74
2023/08/31 11:11:22;;;;;;;3.30;2.25;;;;;;;18.21;45.20;99522.81;10378083;28;20246;-74
2023/08/31 11:16:24;;;;;;;3.47;2.00;;;;;;;18.08;44.72;99567.25;10454339;28;20649;-74
2023/08/31 11:21:26;;;;;;;3.58;2.20;;;;;;;19.37;43.58;99494.44;10448755;28;20242;-74
2023/08/31 11:26:31;;;;;;;4.55;2.83;;;;;;;18.65;44.00;99513.06;10448303;28;20809;-74
2023/08/31 11:31:41;;;;;;;4.05;2.10;;;;;;;17.69;44.18;99577.78;10449472;28;20230;-74
2023/08/31 11:36:45;;;;;;;2.47;2.28;;;;;;;17.06;45.42;99609.00;10450134;28;20782;-75
2023/08/31 11:41:47;;;;;;;3.15;1.95;;;;;;;17.42;44.00;99558.50;10451881;28;20615;-74
2023/08/31 11:46:50;;;;;;;4.72;2.20;;;;;;;18.70;44.01;99516.97;10450339;28;20224;-73
2023/08/31 11:51:52;;;;;;;4.22;2.13;;;;;;;17.92;44.10;99563.41;10443880;28;20250;-75
2023/08/31 11:56:55;;;;;;;4.88;2.08;;;;;;;18.28;43.51;99531.63;10444513;28;20232;-74
2023/08/31 12:01:58;;;;;;;5.00;2.35;;;;;;;18.88;43.44;99508.59;10442879;28;20761;-75
2023/08/31 12:07:04;;;;;;;2.95;2.00;;;;;;;18.79;42.76;99524.44;10440095;28;20764;-74
2023/08/31 12:12:07;;;;;;;4.25;2.30;;;;;;;18.03;42.71;99567.94;10448612;28;20609;-73
2023/08/31 12:17:12;;;;;;;3.55;2.30;;;;;;;18.16;41.86;99614.78;10421603;28;20377;-75
2023/08/31 12:22:15;;;;;;;3.45;2.08;;;;;;;19.07;41.86;99492.91;10424774;28;20833;-73
2023/08/31 12:27:19;;;;;;;5.47;2.42;;;;;;;19.07;41.82;99540.91;10419583;28;20297;-73
2023/08/31 12:32:21;;;;;;;4.15;2.10;;;;;;;18.16;42.12;99572.28;10418915;28;20230;-74
2023/08/31 12:37:22;;;;;;;4.40;2.20;;;;;;;18.52;42.19;99578.41;10421809;28;20715;-75
2023/08/31 12:42:24;;;;;;;5.03;2.75;;;;;;;18.29;42.12;99625.38;10425334;28;20583;-75
2023/08/31 12:47:26;;;;;;;4.28;2.30;;;;;;;17.72;43.06;99575.44;10415382;28;20239;-74
2023/08/31 12:52:27;;;;;;;2.63;2.05;;;;;;;19.11;41.99;99466.91;10424878;28;20227;-74
2023/08/31 12:57:29;;;;;;;4.40;2.58;;;;;;;18.52;42.51;99580.31;10418770;28;20254;-75
2023/08/31 13:02:31;;;;;;;4.53;1.88;;;;;;;18.21;43.37;99539.06;10418400;28;20670;-73
2023/08/31 13:07:33;;;;;;;4.60;2.20;;;;;;;18.26;42.96;99547.28;10419805;28;20241;-73
2023/08/31 13:12:34;;;;;;;3.35;2.10;;;;;;;18.04;43.34;99576.91;10410305;28;20243;-73
2023/08/31 13:17:36;;;;;;;5.97;3.17;;;;;;;18.39;43.42;99502.84;10414555;28;20291;-75
2023/08/31 13:22:40;;;;;;;5.90;2.45;;;;;;;18.96;43.50;99481.09;10408058;28;20231;-75
2023/08/31 13:27:43;;;;;;;7.00;2.40;;;;;;;18.98;44.14;99502.53;10410266;28;20283;-74
2023/08/31 13:32:47;;;;;;;6.07;3.00;;;;;;;18.54;44.65;99578.16;10416920;28;20269;-76
2023/08/31 13:37:52;;;;;;;4.50;2.90;;;;;;;19.31;43.43;99520.66;10421881;28;20235;-70
2023/08/31 13:43:02;;;;;;;3.13;2.22;;;;;;;18.35;44.48;99574.84;10415023;28;20239;-73
2023/08/31 13:48:05;;;;;;;4.45;2.13;;;;;;;19.25;42.83;99453.84;10420600;28;20315;-75
2023/08/31 13:53:06;;;;;;;5.32;2.47;;;;;;;18.11;44.23;99607.38;10424312;28;20232;-75
2023/08/31 13:58:08;;;;;;;4.05;2.50;;;;;;;19.52;43.55;99410.50;10421363;28;20339;-74
2023/08/31 14:03:10;;;;;;;5.43;2.60;;;;;;;18.50;44.75;99472.19;10418192;28;20239;-75
2023/08/31 14:08:12;;;;;;;26.55;7.63;;;;;;;18.92;44.30;99435.72;10417253;28;20258;-76
2023/08/31 14:13:14;;;;;;;7.10;3.20;;;;;;;19.00;43.65;99465.97;10418105;28;20219;-75
2023/08/31 14:18:15;;;;;;;6.45;2.72;;;;;;;18.24;43.81;99485.25;10420312;28;21849;-76
2023/08/31 14:23:19;;;;;;;5.95;2.45;;;;;;;17.39;44.91;99575.19;10419624;28;20232;-78
2023/08/31 14:28:23;;;;;;;4.80;2.78;;;;;;;19.02;44.00;99531.59;10415948;28;20228;-77
2023/08/31 14:33:24;;;;;;;5.18;2.30;;;;;;;18.62;44.93;99443.13;10407787;28;20668;-75
2023/08/31 14:38:27;;;;;;;5.57;2.60;;;;;;;18.82;44.03;99458.88;10418453;28;20227;-76
2023/08/31 14:43:29;;;;;;;4.82;2.47;;;;;;;19.65;43.83;99441.06;10410719;28;20229;-74
2023/08/31 14:48:32;;;;;;;5.15;2.45;;;;;;;19.16;44.32;99448.00;10415731;28;20318;-74
2023/08/31 14:53:34;;;;;;;5.82;2.88;;;;;;;18.09;44.12;99563.47;10418666;28;20235;-77
2023/08/31 14:58:38;;;;;;;4.40;2.10;;;;;;;18.73;43.76;99495.59;10411189;28;20261;-75
2023/08/31 15:03:43;;;;;;;6.97;2.65;;;;;;;18.35;43.59;99554.00;10415951;28;20378;-76
2023/08/31 15:08:45;;;;;;;5.75;3.10;;;;;;;19.15;43.55;99462.66;10420678;28;20288;-76
2023/08/31 15:13:46;;;;;;;7.85;5.72;;;;;;;19.17;44.20;99493.06;10420028;28;20707;-76
2023/08/31 15:18:48;;;;;;;9.98;4.47;;;;;;;19.39;44.03;99455.13;10410673;28;20327;-77
2023/08/31 15:23:50;;;;;;;5.68;2.45;;;;;;;19.27;43.78;99459.84;10424266;28;20234;-76
2023/08/31 15:28:54;;;;;;;4.20;2.33;;;;;;;19.47;43.27;99464.72;10405528;28;20470;-75
2023/08/31 15:33:56;;;;;;;3.47;2.13;;;;;;;18.96;44.33;99523.63;10421001;28;20366;-77
2023/08/31 15:38:58;;;;;;;5.10;2.30;;;;;;;18.85;44.12;99574.13;10418231;28;20337;-73
2023/08/31 15:44:00;;;;;;;4.50;2.75;;;;;;;18.65;44.58;99540.19;10410956;28;20232;-73
2023/08/31 15:49:02;;;;;;;3.67;2.58;;;;;;;19.22;44.08;99480.66;10416902;28;20253;-76
2023/08/31 15:54:05;;;;;;;6.97;2.50;;;;;;;18.01;45.84;99534.06;10422388;28;20231;-77
2023/08/31 15:59:07;;;;;;;5.28;2.78;;;;;;;18.35;45.21;99502.53;10424877;28;20236;-76
2023/08/31 16:04:09;;;;;;;4.65;2.50;;;;;;;18.89;44.88;99498.56;10415945;28;20668;-77
2023/08/31 16:09:11;;;;;;;4.63;3.10;;;;;;;18.40;45.25;99485.53;10422744;28;20731;-76
2023/08/31 16:14:12;;;;;;;2.90;2.25;;;;;;;18.27;45.75;99443.31;10420508;28;20311;-71
2023/08/31 16:19:14;;;;;;;6.78;2.58;;;;;;;18.75;45.06;99405.94;10416732;28;20242;-72
2023/08/31 16:24:16;;;;;;;3.83;2.53;;;;;;;18.73;44.66;99489.38;10414823;28;20224;-74
2023/08/31 16:29:18;;;;;;;6.97;2.60;;;;;;;18.61;45.00;99524.69;10418939;28;20231;-75
2023/08/31 16:34:19;;;;;;;4.10;2.40;;;;;;;19.48;44.34;99422.94;10421015;28;20220;-75
2023/08/31 16:39:21;;;;;;;4.47;2.42;;;;;;;18.92;44.28;99515.19;10424014;28;20254;-74
2023/08/31 16:44:25;;;;;;;4.90;2.60;;;;;;;19.20;44.47;99487.13;10412383;28;20663;-74
2023/08/31 16:49:27;;;;;;;6.18;2.53;;;;;;;19.32;44.21;99484.31;10424012;28;20740;-79
2023/08/31 16:54:29;;;;;;;4.03;2.15;;;;;;;19.52;44.10;99475.63;10420310;28;20286;-76
2023/08/31 16:59:32;;;;;;;5.30;2.45;;;;;;;19.83;44.23;99486.09;10424366;28;20682;-76
2023/08/31 17:04:33;;;;;;;6.20;2.22;;;;;;;19.43;45.22;99493.41;10414773;28;20794;-77
2023/08/31 17:09:35;;;;;;;3.80;2.45;;;;;;;19.50;45.65;99442.50;10419835;28;20342;-76
2023/08/31 17:14:37;;;;;;;4.78;2.40;;;;;;;19.80;45.27;99452.09;10416123;28;20782;-76
2023/08/31 17:19:38;;;;;;;5.43;2.58;;;;;;;18.49;48.26;99486.81;10419167;28;24796;-76
2023/08/31 17:24:40;;;;;;;4.93;2.28;;;;;;;18.24;48.42;99520.44;10413803;28;20338;-77
2023/08/31 17:29:42;;;;;;;4.63;2.60;;;;;;;18.78;47.91;99489.44;10413058;28;20656;-77
2023/08/31 17:34:43;;;;;;;4.32;2.58;;;;;;;18.83;48.72;99389.25;10410019;28;20680;-77
2023/08/31 17:39:45;;;;;;;3.57;2.67;;;;;;;18.33;49.88;99452.38;10422537;28;20343;-80
2023/08/31 17:44:48;;;;;;;5.67;2.47;;;;;;;17.42;50.56;99536.84;10414918;28;20228;-77
2023/08/31 17:49:49;;;;;;;6.50;2.73;;;;;;;16.90;52.30;99497.78;10413683;28;20617;-79
2023/08/31 17:54:51;;;;;;;7.07;2.70;;;;;;;18.42;50.20;99389.44;10417221;28;20357;-75
2023/08/31 17:59:53;;;;;;;5.50;2.70;;;;;;;17.92;50.95;99464.06;10414968;28;20429;-73
2023/08/31 18:04:54;;;;;;;6.07;3.23;;;;;;;19.53;48.28;99441.16;10417140;28;20238;-71
2023/08/31 18:09:56;;;;;;;3.53;2.97;;;;;;;20.32;46.78;99434.47;10412376;28;20277;-72
2023/08/31 18:14:58;;;;;;;4.13;2.70;;;;;;;19.79;47.78;99550.94;10419009;28;20662;-75
2023/08/31 18:19:59;;;;;;;3.77;3.13;;;;;;;20.53;47.29;99470.81;10416343;28;20265;-79
2023/08/31 18:25:03;;;;;;;4.00;2.72;;;;;;;20.44;47.44;99492.19;10415786;28;20224;-77
2023/08/31 18:30:05;;;;;;;3.60;2.30;;;;;;;20.16;47.20;99495.13;10412161;28;20225;-75
2023/08/31 18:35:07;;;;;;;4.70;3.33;;;;;;;19.83;47.72;99546.63;10416890;28;20315;-82
2023/08/31 18:40:11;;;;;;;5.10;2.72;;;;;;;20.92;46.32;99475.19;10415826;28;20609;-75
2023/08/31 18:45:17;;;;;;;5.03;2.60;;;;;;;20.91;45.93;99487.97;10421321;28;20224;-77
2023/08/31 18:50:20;;;;;;;4.28;2.80;;;;;;;21.02;46.05;99508.75;10436434;28;24011;-76
2023/08/31 18:55:23;;;;;;;3.75;2.72;;;;;;;20.96;46.47;99517.94;10454249;28;20244;-81
2023/08/31 19:00:25;;;;;;;4.37;3.00;;;;;;;20.76;46.88;99553.91;10421371;28;20232;-78
2023/08/31 19:05:27;;;;;;;5.57;2.53;;;;;;;20.50;47.53;99550.13;10415206;28;20797;-80
2023/08/31 19:10:29;;;;;;;5.15;2.97;;;;;;;19.43;49.12;99633.69;10409242;28;20241;-75
2023/08/31 19:15:30;;;;;;;9.75;3.40;;;;;;;17.07;54.43;99607.94;10413162;28;20315;-74
2023/08/31 19:20:33;;;;;;;8.83;3.80;;;;;;;17.26;53.48;99552.72;10410336;28;20305;-74
2023/08/31 19:25:35;;;;;;;5.70;3.33;;;;;;;18.59;52.57;99399.44;10418607;28;20255;-78
2023/08/31 19:30:36;;;;;;;4.87;2.70;;;;;;;17.37;54.89;99553.78;10422102;28;20247;-76
2023/08/31 19:35:38;;;;;;;3.87;3.30;;;;;;;17.48;54.78;99496.16;10421771;28;20231;-76
2023/08/31 19:40:59;;;;;;;4.63;2.93;;;;;;;17.89;53.28;99553.06;10418757;28;20232;-76
2023/08/31 19:46:01;;;;;;;4.53;3.10;;;;;;;19.08;51.33;99497.28;10419389;28;20760;-74
2023/08/31 19:51:05;;;;;;;4.80;2.67;;;;;;;20.22;49.22;99486.00;10419110;28;20682;-75
2023/08/31 19:56:06;;;;;;;3.33;2.90;;;;;;;19.38;50.67;99525.91;10415497;28;20401;-73
2023/08/31 20:01:08;;;;;;;4.30;3.10;;;;;;;18.28;53.29;99569.53;10420745;28;20220;-74
2023/08/31 20:06:10;;;;;;;6.40;3.00;;;;;;;20.07;50.19;99465.69;10417932;28;20254;-76
2023/08/31 20:11:12;;;;;;;6.03;3.30;;;;;;;19.43;50.88;99534.09;10413912;28;20208;-75
2023/08/31 20:16:13;;;;;;;5.20;3.00;;;;;;;19.84;49.84;99552.88;10423663;28;20314;-78
2023/08/31 20:21:15;;;;;;;6.72;3.00;;;;;;;20.06;49.23;99559.13;10423377;28;20221;-73
2023/08/31 20:26:17;;;;;;;5.30;3.07;;;;;;;19.16;51.43;99523.13;10417929;28;20220;-75
2023/08/31 20:31:19;;;;;;;4.37;2.83;;;;;;;20.21;48.82;99565.84;10404189;28;20212;-78
2023/08/31 20:36:21;;;;;;;7.20;3.20;;;;;;;20.24;48.55;99578.91;10439796;28;20225;-75
2023/08/31 20:41:23;;;;;;;5.20;3.27;;;;;;;19.80;50.43;99598.69;10424096;28;20208;-75
2023/08/31 20:46:24;;;;;;;6.47;3.10;;;;;;;20.29;49.42;99574.38;10418907;28;20224;-74
2023/08/31 20:51:26;;;;;;;6.30;3.07;;;;;;;19.68;50.29;99628.66;10416878;28;20235;-74
2023/08/31 20:56:27;;;;;;;6.55;3.25;;;;;;;18.21;53.29;99636.56;10416781;28;20303;-73
2023/08/31 21:01:29;;;;;;;5.07;3.10;;;;;;;19.93;50.38;99513.34;10421271;28;20254;-77
2023/08/31 21:06:31;;;;;;;5.33;3.10;;;;;;;20.09;48.41;99606.69;10419593;28;20789;-74
2023/08/31 21:11:33;;;;;;;4.03;2.80;;;;;;;20.21;49.38;99574.81;10412814;28;20243;-76
2023/08/31 21:16:34;;;;;;;5.57;2.95;;;;;;;20.34;48.98;99562.72;10423422;28;20248;-76
2023/08/31 21:21:36;;;;;;;3.35;2.38;;;;;;;20.46;49.11;99552.53;10421163;28;20244;-79
2023/08/31 21:26:38;;;;;;;3.55;2.47;;;;;;;20.47;49.08;99550.63;10422013;28;20741;-77
2023/08/31 21:31:39;;;;;;;5.00;3.10;;;;;;;19.67;50.70;99580.91;10418245;28;20317;-75
2023/08/31 21:36:41;;;;;;;4.17;3.07;;;;;;;20.06;49.64;99566.47;10417786;28;20235;-76
2023/08/31 21:41:43;;;;;;;5.60;3.08;;;;;;;19.73;49.98;99607.03;10422363;28;20224;-75
2023/08/31 21:46:44;;;;;;;3.03;2.75;;;;;;;19.11;50.97;99623.41;10418049;28;20234;-75
2023/08/31 21:51:46;;;;;;;4.30;3.20;;;;;;;19.57;50.71;99578.84;10420062;28;20727;-76
2023/08/31 21:56:48;;;;;;;5.20;3.17;;;;;;;18.86;50.35;99612.91;10418073;28;20231;-78
2023/08/31 22:01:49;;;;;;;5.13;2.80;;;;;;;19.47;49.55;99548.84;10415427;28;20261;-80
2023/08/31 22:06:51;;;;;;;5.10;3.10;;;;;;;20.49;48.42;99505.00;10419278;28;20805;-78
2023/08/31 22:11:53;;;;;;;3.87;2.90;;;;;;;20.50;47.87;99528.38;10416945;28;20228;-79
2023/08/31 22:16:55;;;;;;;4.85;2.70;;;;;;;21.09;47.19;99507.66;10420028;28;20615;-78
2023/08/31 22:21:57;;;;;;;3.13;2.83;;;;;;;20.64;48.14;99545.91;10423594;28;20232;-77
2023/08/31 22:26:59;;;;;;;4.10;2.57;;;;;;;20.49;47.99;99556.63;10420222;28;20324;-78
2023/08/31 22:32:01;;;;;;;4.78;3.00;;;;;;;20.58;47.98;99541.53;10417925;28;20233;-79
2023/08/31 22:37:03;;;;;;;5.13;2.70;;;;;;;18.97;51.21;99625.59;10419934;28;20383;-78
2023/08/31 22:42:05;;;;;;;3.53;2.70;;;;;;;20.41;48.64;99529.91;10419315;28;20238;-79
2023/08/31 22:47:07;;;;;;;5.80;3.27;;;;;;;19.04;51.45;99553.06;10419069;28;20963;-79
2023/08/31 22:52:12;;;;;;;4.67;3.27;;;;;;;19.31;51.19;99522.53;10419514;28;20301;-78
2023/08/31 22:57:14;;;;;;;7.17;3.47;;;;;;;19.05;51.48;99568.28;10422445;28;20670;-77
2023/08/31 23:02:16;;;;;;;5.10;3.10;;;;;;;20.11;49.50;99507.59;10447769;28;20641;-78
2023/08/31 23:07:18;;;;;;;4.50;3.45;;;;;;;20.72;48.88;99503.84;10417079;28;20752;-79
2023/08/31 23:12:21;;;;;;;6.85;4.10;;;;;;;20.77;49.29;99446.81;10407814;28;20329;-80
2023/08/31 23:17:23;;;;;;;4.33;3.00;;;;;;;19.46;51.08;99551.78;10419821;28;20232;-79
2023/08/31 23:22:25;;;;;;;4.47;3.20;;;;;;;18.73;53.52;99448.72;10419731;28;20290;-79
2023/08/31 23:27:30;;;;;;;4.93;3.10;;;;;;;20.19;50.18;99494.66;10423804;28;20770;-78
2023/08/31 23:32:32;;;;;;;5.77;3.30;;;;;;;18.51;53.00;99587.63;10418706;28;20298;-77